West Panama City Beach, Florida
Current Conditions -  °F | °C
As of 9:53 PM on Tuesday 27 Jan 2015 (Local Time) from KECP Reporting Station
Clear Clear  
Wind Chill:   Ceiling: Unl
Heat Index:   Visibility: 10mi
Dew Point:   Wind: 0mph
Humidity: 86%   Direction: NA
Pressure: 30.1"   Gusts: NA
Location:  30.3525°N, 85.9093°W
Report Text: KECP 280353Z AUTO 00000KT 10SM CLR 06/04 A3010 RMK AO2 SLP204 T00610039
Loading
Personal Weather Stations






























Interactive Weather Map New forecast layout! Learn more

10-Day Weather Forecast

Advertisements
Track Severe Weather on mobile